createdAt,value
2023-03-18T00:02:20.105Z,144.55
2023-03-18T00:04:47.762Z,151.88
2023-03-18T00:07:15.511Z,150.98
2023-03-18T00:09:43.376Z,134.25
2023-03-18T00:12:12.434Z,152.43
2023-03-18T00:14:40.083Z,152.77
2023-03-18T00:17:08.010Z,148.90
2023-03-18T00:19:35.640Z,150.60
2023-03-18T00:22:03.788Z,150.90
2023-03-18T00:24:31.533Z,145.35
2023-03-18T00:26:59.128Z,149.77
2023-03-18T00:29:28.190Z,156.80
2023-03-18T00:31:56.098Z,155.00
2023-03-18T00:34:23.692Z,142.82
2023-03-18T00:36:56.803Z,152.38
2023-03-18T00:39:26.423Z,150.55
2023-03-18T00:41:56.215Z,134.82
2023-03-18T00:44:25.204Z,145.18
2023-03-18T00:46:54.249Z,145.25
2023-03-18T00:49:21.901Z,150.80
2023-03-18T00:51:49.584Z,142.90
2023-03-18T00:54:18.496Z,151.35
2023-03-18T00:56:46.864Z,149.07
2023-03-18T00:59:14.981Z,134.18
2023-03-18T01:01:43.682Z,142.38
2023-03-18T01:04:12.813Z,150.45
2023-03-18T01:06:40.447Z,153.75
2023-03-18T01:09:11.696Z,161.32
2023-03-18T01:11:40.385Z,167.13
2023-03-18T01:14:08.702Z,156.05
2023-03-18T01:16:36.567Z,160.70
2023-03-18T01:19:04.939Z,162.07
2023-03-18T01:21:34.712Z,145.90
2023-03-18T01:24:04.432Z,150.40
2023-03-18T01:26:34.481Z,140.55
2023-03-18T01:29:03.655Z,143.45
2023-03-18T01:31:34.562Z,155.68
2023-03-18T01:34:06.762Z,150.63
2023-03-18T01:36:46.246Z,149.60
2023-03-18T01:39:15.178Z,161.80
2023-03-18T01:41:43.082Z,141.88
2023-03-18T01:44:17.426Z,143.63
2023-03-18T01:46:48.264Z,152.95
2023-03-18T01:49:20.856Z,155.50
2023-03-18T01:51:54.171Z,161.02
2023-03-18T01:54:23.972Z,166.60
2023-03-18T01:56:53.818Z,157.43
2023-03-18T01:59:24.750Z,151.25
2023-03-18T02:01:55.989Z,168.07
2023-03-18T02:04:31.079Z,153.80
2023-03-18T02:07:01.234Z,162.43
2023-03-18T02:09:29.607Z,160.70
2023-03-18T02:11:57.623Z,162.25
2023-03-18T02:14:27.637Z,173.05
2023-03-18T02:17:03.903Z,158.02
2023-03-18T02:19:55.423Z,176.77
2023-03-18T02:22:31.972Z,179.48
2023-03-18T02:25:14.048Z,185.90
2023-03-18T02:27:45.987Z,193.55
2023-03-18T02:30:18.931Z,207.75
2023-03-18T02:32:51.814Z,193.35
2023-03-18T02:35:20.654Z,190.20
2023-03-18T02:37:49.297Z,199.95
2023-03-18T02:40:21.903Z,209.73
2023-03-18T02:42:51.437Z,203.27
2023-03-18T02:45:36.731Z,205.10
2023-03-18T02:48:16.069Z,197.57
2023-03-18T02:50:44.011Z,200.93
2023-03-18T02:53:13.782Z,204.27
2023-03-18T02:55:42.362Z,209.55
2023-03-18T02:58:11.538Z,215.93
2023-03-18T03:00:40.970Z,209.18
2023-03-18T03:03:08.821Z,199.23
2023-03-18T03:05:36.916Z,218.05
2023-03-18T03:08:05.036Z,214.20
2023-03-18T03:10:37.689Z,220.02
2023-03-18T03:13:07.384Z,226.70
2023-03-18T03:15:36.911Z,209.15
2023-03-18T03:18:05.224Z,224.07
2023-03-18T03:20:35.376Z,228.32
2023-03-18T03:23:04.085Z,231.32
2023-03-18T03:25:32.360Z,242.88
2023-03-18T03:28:00.248Z,215.15
2023-03-18T03:30:28.566Z,230.38
2023-03-18T03:33:01.378Z,231.07
2023-03-18T03:35:29.186Z,225.10
2023-03-18T03:37:56.821Z,216.60
2023-03-18T03:40:25.977Z,228.60
2023-03-18T03:42:53.674Z,217.10
2023-03-18T03:45:21.291Z,218.82
2023-03-18T03:47:49.292Z,225.32
2023-03-18T03:50:19.421Z,215.82
2023-03-18T03:52:47.162Z,207.25
2023-03-18T03:55:17.560Z,218.63
2023-03-18T03:57:45.757Z,217.00
2023-03-18T04:00:16.535Z,214.73
2023-03-18T04:02:50.039Z,196.50
2023-03-18T04:05:23.470Z,205.98
2023-03-18T04:07:52.442Z,212.63
2023-03-18T04:10:26.391Z,208.57
2023-03-18T04:12:54.316Z,201.95
2023-03-18T04:15:23.009Z,211.65
2023-03-18T04:17:53.717Z,214.48
2023-03-18T04:20:22.944Z,203.80
2023-03-18T04:22:51.344Z,219.27
2023-03-18T04:25:22.078Z,202.45
2023-03-18T04:27:53.500Z,210.15
2023-03-18T04:30:23.352Z,207.63
2023-03-18T04:33:10.796Z,189.32
2023-03-18T04:35:42.993Z,213.88
2023-03-18T04:38:12.831Z,212.05
2023-03-18T04:40:40.962Z,203.32
2023-03-18T04:43:09.882Z,219.80
2023-03-18T04:45:37.946Z,218.85
2023-03-18T04:48:06.397Z,200.15
2023-03-18T04:50:38.874Z,226.65
2023-03-18T04:53:11.235Z,223.27
2023-03-18T04:55:39.482Z,210.68
2023-03-18T04:58:09.615Z,223.57
2023-03-18T05:00:42.435Z,207.15
2023-03-18T05:03:21.773Z,208.95
2023-03-18T05:05:50.589Z,206.20
2023-03-18T05:08:23.649Z,189.20
2023-03-18T05:10:52.339Z,200.77
2023-03-18T05:13:20.420Z,208.38
2023-03-18T05:15:48.584Z,198.95
2023-03-18T05:18:17.073Z,189.13
2023-03-18T05:20:48.852Z,197.63
2023-03-18T05:23:18.543Z,209.45
2023-03-18T05:25:55.957Z,214.98
2023-03-18T05:28:27.039Z,199.20
2023-03-18T05:31:20.971Z,205.98
2023-03-18T05:33:48.987Z,196.73
2023-03-18T05:36:17.399Z,190.23
2023-03-18T05:38:55.494Z,175.38
2023-03-18T05:41:25.674Z,176.63
2023-03-18T05:43:54.158Z,161.00
2023-03-18T05:46:22.785Z,157.85
2023-03-18T05:48:59.776Z,143.52
2023-03-18T05:51:32.444Z,154.70
2023-03-18T05:54:01.330Z,149.07
2023-03-18T05:56:35.083Z,142.82
2023-03-18T05:59:06.545Z,141.25
2023-03-18T06:01:46.965Z,154.60
2023-03-18T06:04:15.312Z,153.40
2023-03-18T06:06:43.456Z,135.75
2023-03-18T06:09:13.218Z,137.45
2023-03-18T06:11:45.468Z,129.70
2023-03-18T06:14:14.325Z,136.77
2023-03-18T06:16:43.276Z,133.73
2023-03-18T06:19:13.056Z,137.88
2023-03-18T06:21:42.025Z,134.48
2023-03-18T06:24:10.665Z,130.43
2023-03-18T06:26:39.741Z,141.35
2023-03-18T06:29:10.723Z,136.38
2023-03-18T06:31:39.689Z,134.63
2023-03-18T06:34:10.111Z,128.25
2023-03-18T06:36:40.205Z,122.40
2023-03-18T06:39:13.916Z,128.95
2023-03-18T06:41:42.702Z,126.82
2023-03-18T06:44:31.772Z,115.15
2023-03-18T06:47:08.851Z,115.47
2023-03-18T06:49:39.721Z,114.43
2023-03-18T06:52:13.487Z,118.32
2023-03-18T06:54:44.469Z,117.78
2023-03-18T06:57:12.390Z,117.43
2023-03-18T06:59:41.950Z,116.97
2023-03-18T07:02:11.137Z,114.50
2023-03-18T07:04:38.927Z,109.30
2023-03-18T07:07:07.134Z,110.75
2023-03-18T07:09:37.486Z,119.43
2023-03-18T07:12:06.360Z,109.63
2023-03-18T07:14:34.084Z,107.55
2023-03-18T07:17:03.878Z,109.53
2023-03-18T07:19:32.983Z,117.03
2023-03-18T07:22:02.287Z,110.07
2023-03-18T07:24:30.359Z,105.50
2023-03-18T07:26:58.743Z,118.18
2023-03-18T07:29:26.368Z,117.75
2023-03-18T07:31:54.036Z,104.00
2023-03-18T07:34:23.344Z,119.93
2023-03-18T07:36:51.010Z,118.00
2023-03-18T07:39:18.672Z,112.68
2023-03-18T07:41:46.320Z,113.55
2023-03-18T07:44:21.711Z,110.40
2023-03-18T07:46:49.355Z,111.72
2023-03-18T07:49:17.036Z,109.05
2023-03-18T07:51:46.056Z,106.10
2023-03-18T07:54:14.214Z,112.57
2023-03-18T07:56:41.862Z,108.10
2023-03-18T07:59:10.318Z,115.85
2023-03-18T08:01:38.998Z,122.70
2023-03-18T08:04:06.896Z,120.38
2023-03-18T08:06:34.996Z,125.65
2023-03-18T08:09:04.930Z,121.85
2023-03-18T08:11:33.741Z,120.45
2023-03-18T08:14:01.573Z,121.00
2023-03-18T08:16:29.569Z,119.03
2023-03-18T08:18:57.197Z,120.53
2023-03-18T08:21:24.931Z,113.13
2023-03-18T08:23:52.589Z,113.53
2023-03-18T08:26:21.532Z,117.45
2023-03-18T08:28:49.207Z,116.85
2023-03-18T08:31:16.862Z,122.18
2023-03-18T08:33:44.547Z,115.07
2023-03-18T08:36:12.228Z,108.57
2023-03-18T08:38:39.976Z,126.75
2023-03-18T08:41:07.704Z,109.30
2023-03-18T08:43:38.958Z,115.40
2023-03-18T08:46:07.099Z,122.10
2023-03-18T08:48:35.039Z,122.53
2023-03-18T08:51:04.819Z,123.75
2023-03-18T08:53:32.497Z,115.85
2023-03-18T08:56:02.848Z,120.47
2023-03-18T08:58:30.600Z,113.88
2023-03-18T09:00:59.597Z,118.95
2023-03-18T09:03:27.421Z,127.03
2023-03-18T09:05:55.405Z,117.35
2023-03-18T09:08:23.557Z,108.97
2023-03-18T09:10:53.359Z,107.65
2023-03-18T09:13:21.269Z,101.80
2023-03-18T09:15:48.983Z,104.78
2023-03-18T09:18:19.178Z,104.10
2023-03-18T09:20:47.409Z,106.30
2023-03-18T09:23:18.159Z,101.47
2023-03-18T09:25:46.838Z,103.90
2023-03-18T09:28:14.814Z,97.28
2023-03-18T09:30:42.632Z,90.82
2023-03-18T09:33:11.706Z,108.68
2023-03-18T09:35:41.164Z,99.95
2023-03-18T09:38:09.083Z,96.15
2023-03-18T09:40:38.831Z,96.30
2023-03-18T09:43:21.711Z,99.72
2023-03-18T09:45:59.956Z,88.40
2023-03-18T09:48:49.201Z,92.72
2023-03-18T09:51:34.902Z,97.40
2023-03-18T09:54:06.857Z,100.75
2023-03-18T09:56:37.693Z,94.35
2023-03-18T09:59:12.972Z,95.35
2023-03-18T10:01:42.062Z,96.45
2023-03-18T10:04:18.180Z,100.95
2023-03-18T10:06:50.046Z,103.07
2023-03-18T10:09:24.286Z,88.55
2023-03-18T10:11:54.766Z,96.57
2023-03-18T10:14:36.251Z,93.03
2023-03-18T10:17:13.345Z,98.95
2023-03-18T10:19:46.293Z,97.93
2023-03-18T10:22:29.840Z,94.60
2023-03-18T10:25:04.614Z,100.95
2023-03-18T10:27:42.755Z,98.07
2023-03-18T10:30:29.993Z,92.72
2023-03-18T10:33:04.905Z,96.07
2023-03-18T10:35:39.654Z,91.57
2023-03-18T10:38:19.129Z,98.25
2023-03-18T10:40:47.915Z,97.93
2023-03-18T10:43:19.397Z,100.70
2023-03-18T10:45:48.647Z,96.93
2023-03-18T10:48:22.209Z,94.35
2023-03-18T10:51:01.907Z,96.05
2023-03-18T10:53:39.116Z,99.95
2023-03-18T10:56:10.335Z,91.93
2023-03-18T10:58:39.123Z,101.63
2023-03-18T11:01:08.671Z,96.90
2023-03-18T11:03:42.059Z,102.50
2023-03-18T11:06:19.027Z,112.05
2023-03-18T11:08:50.241Z,106.45
2023-03-18T11:11:26.761Z,108.22
2023-03-18T11:13:56.243Z,113.50
2023-03-18T11:16:31.803Z,113.63
2023-03-18T11:18:59.865Z,115.80
2023-03-18T11:21:29.645Z,115.40
2023-03-18T11:24:10.575Z,122.68
2023-03-18T11:26:53.416Z,111.53
2023-03-18T11:29:24.904Z,117.22
2023-03-18T11:31:57.984Z,122.07
2023-03-18T11:34:26.982Z,129.43
2023-03-18T11:36:59.042Z,134.23
2023-03-18T11:39:31.120Z,133.93
2023-03-18T11:42:00.256Z,124.43
2023-03-18T11:44:33.082Z,133.45
2023-03-18T11:47:05.685Z,127.18
2023-03-18T11:49:34.391Z,125.88
2023-03-18T11:52:29.428Z,141.25
2023-03-18T11:55:31.709Z,127.03
2023-03-18T11:58:25.935Z,130.55
2023-03-18T12:01:01.578Z,124.45
2023-03-18T12:03:56.708Z,128.98
2023-03-18T12:06:26.111Z,117.60
2023-03-18T12:09:04.963Z,126.78
2023-03-18T12:11:48.826Z,138.13
2023-03-18T12:14:25.783Z,133.98
2023-03-18T12:17:03.764Z,135.35
2023-03-18T12:19:46.791Z,133.93
2023-03-18T12:22:28.917Z,130.88
2023-03-18T12:25:14.025Z,139.73
2023-03-18T12:27:53.478Z,134.27
2023-03-18T12:30:39.427Z,139.20
2023-03-18T12:33:24.060Z,125.40
2023-03-18T12:36:00.675Z,133.68
2023-03-18T12:38:45.797Z,128.05
2023-03-18T12:41:18.415Z,131.02
2023-03-18T12:44:03.855Z,132.50
2023-03-18T12:46:34.817Z,121.63
2023-03-18T12:49:09.645Z,117.53
2023-03-18T12:51:44.794Z,126.68
2023-03-18T12:54:18.953Z,134.07
2023-03-18T12:56:52.827Z,127.28
2023-03-18T12:59:29.050Z,131.15
2023-03-18T13:02:13.232Z,136.73
2023-03-18T13:04:49.989Z,122.45
2023-03-18T13:07:24.046Z,119.80
2023-03-18T13:09:59.457Z,127.05
2023-03-18T13:12:31.623Z,135.75
2023-03-18T13:15:03.448Z,130.15
2023-03-18T13:17:34.067Z,130.93
2023-03-18T13:20:03.616Z,131.10
2023-03-18T13:23:01.761Z,133.82
2023-03-18T13:25:37.852Z,130.52
2023-03-18T13:28:17.334Z,126.53
2023-03-18T13:30:59.264Z,128.02
2023-03-18T13:33:58.630Z,135.23
2023-03-18T13:36:43.565Z,134.10
2023-03-18T13:39:24.355Z,128.88
2023-03-18T13:42:19.961Z,135.20
2023-03-18T13:44:55.210Z,116.22
2023-03-18T13:47:25.508Z,127.03
2023-03-18T13:50:01.140Z,133.65
2023-03-18T13:52:36.978Z,134.13
2023-03-18T13:55:09.051Z,123.00
2023-03-18T13:57:48.514Z,130.15
2023-03-18T14:00:30.427Z,133.25
2023-03-18T14:03:07.268Z,135.63
2023-03-18T14:05:41.662Z,125.45
2023-03-18T14:08:35.188Z,129.98
2023-03-18T14:11:51.152Z,127.10
2023-03-18T14:14:56.685Z,125.55
2023-03-18T14:17:33.500Z,121.70
2023-03-18T14:20:21.385Z,119.28
2023-03-18T14:22:51.150Z,117.45
2023-03-18T14:25:37.556Z,118.97
2023-03-18T14:28:21.410Z,113.57
2023-03-18T14:30:57.008Z,122.97
2023-03-18T14:33:34.363Z,112.25
2023-03-18T14:36:09.806Z,117.40
2023-03-18T14:38:43.390Z,106.43
2023-03-18T14:41:22.372Z,112.40
2023-03-18T14:44:07.588Z,113.50
2023-03-18T14:46:41.276Z,125.72
2023-03-18T14:49:42.811Z,116.32
2023-03-18T14:52:24.030Z,122.00
2023-03-18T14:54:55.013Z,115.25
2023-03-18T14:57:23.234Z,120.30
2023-03-18T14:59:51.433Z,125.32
2023-03-18T15:02:26.923Z,120.55
2023-03-18T15:04:57.051Z,119.03
2023-03-18T15:07:35.311Z,118.93
2023-03-18T15:10:08.602Z,108.57
2023-03-18T15:12:37.224Z,112.85
2023-03-18T15:15:05.476Z,120.20
2023-03-18T15:17:33.392Z,109.60
2023-03-18T15:20:01.630Z,112.63
2023-03-18T15:22:34.726Z,108.32
2023-03-18T15:25:05.748Z,113.63
2023-03-18T15:27:35.862Z,116.68
2023-03-18T15:30:06.674Z,125.05
2023-03-18T15:32:45.494Z,133.25
2023-03-18T15:35:18.288Z,115.20
2023-03-18T15:38:03.112Z,116.47
2023-03-18T15:40:32.821Z,116.30
2023-03-18T15:43:06.831Z,110.20
2023-03-18T15:45:35.449Z,110.88
2023-03-18T15:48:08.883Z,117.00
2023-03-18T15:50:37.212Z,111.95
2023-03-18T15:53:21.472Z,109.60
2023-03-18T15:55:51.416Z,107.43
2023-03-18T15:58:23.816Z,108.93
2023-03-18T16:00:52.488Z,111.47
2023-03-18T16:03:23.361Z,113.25
2023-03-18T16:05:52.852Z,118.57
2023-03-18T16:08:23.652Z,113.47
2023-03-18T16:10:54.595Z,109.95
2023-03-18T16:13:25.067Z,107.20
2023-03-18T16:15:53.924Z,112.88
2023-03-18T16:18:22.673Z,115.53
2023-03-18T16:20:51.323Z,103.32
2023-03-18T16:23:19.623Z,104.60
2023-03-18T16:25:51.029Z,132.70
2023-03-18T16:28:21.267Z,122.55
2023-03-18T16:30:51.995Z,124.53
2023-03-18T16:33:21.578Z,120.60
2023-03-18T16:35:58.436Z,130.52
2023-03-18T16:38:26.979Z,125.70
2023-03-18T16:40:57.499Z,136.57
2023-03-18T16:43:28.019Z,128.93
2023-03-18T16:45:59.346Z,126.50
2023-03-18T16:48:27.977Z,131.63
2023-03-18T16:50:57.219Z,144.43
2023-03-18T16:53:28.568Z,132.30
2023-03-18T16:55:59.813Z,137.73
2023-03-18T16:58:31.309Z,132.60
2023-03-18T17:00:59.945Z,129.88
2023-03-18T17:03:29.274Z,143.45
2023-03-18T17:05:57.326Z,141.10
2023-03-18T17:08:25.034Z,156.52
2023-03-18T17:11:01.648Z,168.93
2023-03-18T17:13:32.199Z,182.85
2023-03-18T17:15:59.864Z,195.55
2023-03-18T17:18:28.004Z,185.30
2023-03-18T17:20:55.779Z,183.07
2023-03-18T17:23:26.991Z,193.77
2023-03-18T17:25:56.733Z,199.40
2023-03-18T17:28:31.149Z,191.88
2023-03-18T17:30:58.849Z,190.95
2023-03-18T17:33:28.927Z,172.23
2023-03-18T17:35:56.876Z,167.63
2023-03-18T17:38:24.835Z,154.73
2023-03-18T17:40:52.779Z,161.48
2023-03-18T17:43:27.464Z,177.73
2023-03-18T17:45:57.323Z,154.88
2023-03-18T17:48:27.276Z,173.45
2023-03-18T17:50:57.339Z,140.13
2023-03-18T17:53:28.442Z,146.07
2023-03-18T17:55:57.131Z,150.93
2023-03-18T17:58:27.355Z,154.38
2023-03-18T18:01:02.198Z,149.38
2023-03-18T18:03:31.170Z,134.30
2023-03-18T18:06:00.172Z,143.15
2023-03-18T18:08:30.183Z,153.98
2023-03-18T18:11:04.174Z,154.23
2023-03-18T18:13:32.246Z,159.13
2023-03-18T18:16:01.298Z,144.95
2023-03-18T18:18:29.433Z,154.77
2023-03-18T18:20:58.972Z,152.25
2023-03-18T18:23:30.248Z,152.60
2023-03-18T18:25:59.796Z,144.20
2023-03-18T18:28:32.869Z,164.05
2023-03-18T18:31:03.402Z,154.65
2023-03-18T18:33:32.166Z,140.00
2023-03-18T18:35:59.962Z,157.05
2023-03-18T18:38:28.344Z,153.48
2023-03-18T18:40:57.383Z,151.13
2023-03-18T18:43:26.286Z,151.13
2023-03-18T18:45:55.805Z,153.25
2023-03-18T18:48:29.798Z,147.02
2023-03-18T18:50:58.483Z,150.90
2023-03-18T18:53:28.078Z,169.25
2023-03-18T18:55:58.100Z,171.88
2023-03-18T18:58:29.686Z,162.70
2023-03-18T19:00:58.050Z,159.30
2023-03-18T19:03:31.419Z,160.02
2023-03-18T19:06:00.871Z,158.43
2023-03-18T19:08:31.649Z,148.15
2023-03-18T19:11:01.317Z,147.48
2023-03-18T19:13:30.965Z,157.88
2023-03-18T19:16:01.855Z,149.23
2023-03-18T19:18:36.086Z,152.90
2023-03-18T19:21:03.770Z,147.98
2023-03-18T19:23:33.185Z,148.52
2023-03-18T19:26:02.136Z,155.38
2023-03-18T19:28:58.411Z,148.20
2023-03-18T19:31:31.171Z,137.68
2023-03-18T19:34:02.120Z,160.25
2023-03-18T19:36:32.512Z,168.98
2023-03-18T19:39:01.935Z,151.55
2023-03-18T19:41:30.204Z,167.90
2023-03-18T19:44:03.783Z,159.23
2023-03-18T19:46:36.952Z,162.30
2023-03-18T19:49:12.698Z,158.35
2023-03-18T19:51:40.366Z,167.55
2023-03-18T19:54:23.481Z,162.57
2023-03-18T19:56:52.539Z,161.88
2023-03-18T19:59:22.755Z,157.15
2023-03-18T20:01:51.399Z,166.23
2023-03-18T20:04:21.535Z,173.13
2023-03-18T20:06:50.296Z,162.65
2023-03-18T20:09:18.674Z,170.70
2023-03-18T20:11:47.649Z,161.63
2023-03-18T20:14:22.834Z,174.43
2023-03-18T20:16:50.494Z,175.00
2023-03-18T20:19:18.118Z,172.90
2023-03-18T20:21:48.638Z,175.10
2023-03-18T20:24:19.972Z,178.55
2023-03-18T20:26:47.709Z,162.82
2023-03-18T20:29:17.894Z,174.13
2023-03-18T20:31:45.852Z,159.18
2023-03-18T20:34:13.844Z,165.80
2023-03-18T20:36:42.005Z,179.93
2023-03-18T20:39:19.775Z,170.80
2023-03-18T20:41:47.533Z,169.13
2023-03-18T20:44:15.284Z,171.68
2023-03-18T20:46:43.168Z,183.35
2023-03-18T20:49:10.877Z,170.55
2023-03-18T20:51:41.068Z,172.43
2023-03-18T20:54:18.619Z,183.95
2023-03-18T20:56:46.640Z,165.45
2023-03-18T20:59:14.662Z,175.23
2023-03-18T21:01:42.796Z,168.95
2023-03-18T21:04:12.659Z,181.13
2023-03-18T21:06:41.241Z,175.00
2023-03-18T21:09:10.026Z,183.18
2023-03-18T21:11:39.131Z,190.43
2023-03-18T21:14:06.768Z,186.13
2023-03-18T21:16:37.589Z,196.65
2023-03-18T21:19:05.526Z,198.93
2023-03-18T21:21:38.249Z,185.50
2023-03-18T21:24:23.571Z,191.95
2023-03-18T21:27:03.792Z,177.93
2023-03-18T21:29:32.724Z,181.90
2023-03-18T21:32:02.372Z,201.25
2023-03-18T21:34:30.432Z,192.40
2023-03-18T21:36:58.057Z,203.68
2023-03-18T21:39:25.839Z,193.88
2023-03-18T21:41:55.055Z,196.48
2023-03-18T21:44:22.839Z,201.15
2023-03-18T21:46:50.414Z,188.82
2023-03-18T21:49:17.991Z,194.10
2023-03-18T21:51:45.628Z,208.77
2023-03-18T21:54:18.932Z,205.20
2023-03-18T21:56:46.704Z,210.63
2023-03-18T21:59:15.857Z,198.40
2023-03-18T22:01:43.850Z,194.70
2023-03-18T22:04:12.562Z,206.63
2023-03-18T22:06:40.343Z,201.23
2023-03-18T22:09:08.620Z,190.55
2023-03-18T22:11:36.309Z,190.27
2023-03-18T22:14:03.928Z,189.32
2023-03-18T22:16:32.990Z,189.68
2023-03-18T22:19:00.737Z,198.85
2023-03-18T22:21:29.314Z,201.18
2023-03-18T22:23:58.076Z,194.30
2023-03-18T22:26:25.801Z,198.57
2023-03-18T22:28:53.471Z,193.02
2023-03-18T22:31:23.971Z,187.60
2023-03-18T22:33:53.451Z,189.98
2023-03-18T22:36:22.575Z,191.18
2023-03-18T22:38:50.400Z,195.80
2023-03-18T22:41:21.963Z,202.20
2023-03-18T22:43:50.259Z,199.03
2023-03-18T22:46:18.052Z,198.73
2023-03-18T22:48:45.978Z,206.77
2023-03-18T22:51:22.884Z,213.97
2023-03-18T22:53:52.468Z,203.17
2023-03-18T22:56:21.147Z,201.60
2023-03-18T22:58:48.841Z,221.00
2023-03-18T23:01:18.703Z,232.63
2023-03-18T23:03:47.326Z,210.87
2023-03-18T23:06:16.665Z,213.00
2023-03-18T23:08:46.490Z,229.13
2023-03-18T23:11:15.095Z,234.83
2023-03-18T23:13:44.212Z,218.00
2023-03-18T23:16:16.373Z,236.20
2023-03-18T23:18:44.182Z,212.40
2023-03-18T23:21:17.347Z,212.87
2023-03-18T23:23:46.407Z,229.10
2023-03-18T23:26:14.120Z,226.23
2023-03-18T23:28:44.990Z,236.43
2023-03-18T23:31:13.375Z,238.73
2023-03-18T23:33:41.189Z,237.90
2023-03-18T23:36:09.703Z,244.00
2023-03-18T23:38:37.915Z,235.87
2023-03-18T23:41:07.319Z,226.47
2023-03-18T23:43:35.012Z,223.80
2023-03-18T23:46:03.613Z,232.30
2023-03-18T23:48:31.858Z,249.50
2023-03-18T23:50:59.553Z,233.47
2023-03-18T23:53:27.264Z,224.00
2023-03-18T23:55:54.868Z,236.17
2023-03-18T23:58:23.813Z,232.00
